Time;durP1;ratioP1;P1;durP2;ratioP2;P2;SDS_P1;SDS_P2;PMS_P1;PMS_P2;Temp;Humidity;BMP_temperature;BMP_pressure;BME280_temperature;BME280_humidity;BME280_pressure;Samples;Min_cycle;Max_cycle;Signal;HPM_P1;HPM_P2
2022/08/10 00:01:28;;;;;;;6.93;3.65;;;17.20;89.40;;;;;;5082605;28;20042;-45
2022/08/10 00:03:54;;;;;;;4.60;3.60;;;17.20;89.40;;;;;;5082784;28;20045;-48
2022/08/10 00:06:23;;;;;;;5.28;3.50;;;17.20;89.50;;;;;;5087712;28;20024;-44
2022/08/10 00:08:48;;;;;;;6.97;3.70;;;17.20;89.80;;;;;;5080721;28;20024;-43
2022/08/10 00:11:14;;;;;;;6.78;4.03;;;17.20;89.80;;;;;;5069065;28;20028;-46
2022/08/10 00:13:42;;;;;;;7.82;3.92;;;17.20;89.90;;;;;;5073050;28;20481;-44
2022/08/10 00:16:08;;;;;;;5.97;3.38;;;17.20;90.10;;;;;;5071755;28;20021;-44
2022/08/10 00:18:36;;;;;;;7.45;4.95;;;17.20;90.00;;;;;;5088968;28;20066;-45
2022/08/10 00:21:04;;;;;;;5.82;3.50;;;17.20;90.00;;;;;;5084897;28;20070;-45
2022/08/10 00:23:31;;;;;;;5.75;3.17;;;17.20;90.00;;;;;;5091260;28;20024;-45
2022/08/10 00:25:56;;;;;;;7.22;3.42;;;17.20;90.00;;;;;;5091262;28;20055;-43
2022/08/10 00:28:22;;;;;;;7.47;3.80;;;17.20;90.00;;;;;;5076211;28;20453;-44
2022/08/10 00:30:50;;;;;;;6.13;3.33;;;17.20;90.00;;;;;;5072855;28;20386;-47
2022/08/10 00:33:19;;;;;;;5.10;3.45;;;17.20;89.80;;;;;;5089661;28;20042;-43
2022/08/10 00:35:45;;;;;;;7.65;3.47;;;17.20;90.00;;;;;;5074041;28;20107;-44
2022/08/10 00:38:13;;;;;;;4.70;2.92;;;17.20;90.00;;;;;;5090725;28;20442;-43
2022/08/10 00:40:39;;;;;;;8.10;3.13;;;17.20;90.00;;;;;;5063476;28;20036;-44
2022/08/10 00:43:05;;;;;;;4.60;3.30;;;17.20;89.90;;;;;;5071601;28;20052;-44
2022/08/10 00:45:31;;;;;;;5.82;3.70;;;17.20;89.90;;;;;;5086861;28;20031;-45
2022/08/10 00:47:57;;;;;;;5.55;3.40;;;17.20;90.00;;;;;;5074254;28;20096;-46
2022/08/10 00:50:25;;;;;;;4.57;3.22;;;17.20;90.00;;;;;;5072396;28;20043;-44
2022/08/10 00:52:50;;;;;;;5.75;3.10;;;17.20;90.00;;;;;;5068733;28;20020;-44
2022/08/10 00:55:17;;;;;;;6.20;4.00;;;17.10;90.00;;;;;;5074493;28;20024;-43
2022/08/10 00:57:43;;;;;;;5.97;3.40;;;17.10;90.10;;;;;;5078135;28;20020;-44
2022/08/10 01:00:10;;;;;;;7.20;3.85;;;17.20;90.20;;;;;;5091548;28;20028;-44
2022/08/10 01:02:36;;;;;;;4.75;3.60;;;17.20;90.10;;;;;;5070598;28;20030;-43
2022/08/10 01:05:07;;;;;;;5.05;3.25;;;17.20;90.20;;;;;;5087404;28;20077;-46
2022/08/10 01:07:35;;;;;;;5.10;3.55;;;17.20;90.30;;;;;;5072661;28;20024;-46
2022/08/10 01:10:07;;;;;;;6.13;3.60;;;17.20;90.20;;;;;;5068604;28;20025;-44
2022/08/10 01:12:40;;;;;;;4.35;3.15;;;17.20;90.20;;;;;;5070719;28;20422;-45
2022/08/10 01:15:18;;;;;;;5.78;3.88;;;17.20;90.30;;;;;;5054233;28;20028;-45
2022/08/10 01:18:17;;;;;;;7.80;3.15;;;17.20;90.20;;;;;;5070703;28;20050;-43
2022/08/10 01:20:52;;;;;;;6.90;4.50;;;17.10;90.20;;;;;;5072788;28;20058;-45
2022/08/10 01:23:52;;;;;;;6.18;3.55;;;17.10;90.30;;;;;;5070837;28;20028;-44
2022/08/10 01:26:21;;;;;;;;;;;17.10;90.30;;;;;;5085053;28;20037;-43
2022/08/10 01:29:30;;;;;;;6.53;3.92;;;17.10;90.30;;;;;;5065595;28;19908;-45
2022/08/10 01:32:02;;;;;;;7.72;4.30;;;17.10;90.40;;;;;;5071553;28;20062;-46
2022/08/10 01:34:36;;;;;;;4.93;3.22;;;17.10;90.40;;;;;;5056731;28;20028;-47
2022/08/10 01:37:11;;;;;;;4.70;3.00;;;17.10;90.40;;;;;;5080938;28;20025;-46
2022/08/10 01:39:42;;;;;;;6.28;3.80;;;17.10;90.40;;;;;;5064408;28;20032;-44
2022/08/10 01:42:12;;;;;;;6.10;3.47;;;17.00;90.40;;;;;;5070407;28;20117;-44
2022/08/10 01:44:44;;;;;;;4.65;3.53;;;17.00;90.40;;;;;;5062256;28;20048;-43
2022/08/10 01:50:12;;;;;;;5.95;3.72;;;16.90;90.50;;;;;;5068023;28;20078;-43
2022/08/10 01:52:43;;;;;;;7.20;3.92;;;16.90;90.60;;;;;;5059774;28;20021;-44
2022/08/10 01:55:11;;;;;;;4.03;3.28;;;16.90;90.50;;;;;;5064574;28;20032;-44
2022/08/10 01:57:41;;;;;;;7.68;3.35;;;16.90;90.60;;;;;;5062981;28;20029;-43
2022/08/10 02:00:07;;;;;;;;;;;16.90;90.50;;;;;;5050462;28;20059;-46
2022/08/10 02:02:35;;;;;;;7.40;3.20;;;16.80;90.50;;;;;;5051278;28;19947;-44
2022/08/10 02:05:04;;;;;;;6.40;3.75;;;16.80;90.50;;;;;;5077988;28;20033;-45
2022/08/10 02:07:32;;;;;;;4.85;3.72;;;16.80;90.50;;;;;;5051054;28;20540;-45
2022/08/10 02:10:02;;;;;;;6.30;3.30;;;16.70;90.40;;;;;;5050617;28;20040;-43
2022/08/10 02:12:30;;;;;;;5.13;2.70;;;16.60;90.30;;;;;;5081387;28;20037;-47
2022/08/10 02:15:00;;;;;;;4.80;2.72;;;16.60;90.30;;;;;;5069495;28;20111;-44
2022/08/10 02:17:33;;;;;;;4.70;2.55;;;16.50;90.40;;;;;;5050058;28;20402;-45
2022/08/10 02:20:04;;;;;;;4.88;2.78;;;16.40;90.40;;;;;;5078991;28;20064;-48
2022/08/10 02:22:30;;;;;;;3.92;2.80;;;16.40;90.30;;;;;;5083733;28;20070;-49
2022/08/10 02:24:57;;;;;;;4.43;3.22;;;16.40;90.30;;;;;;5049750;28;20033;-44
2022/08/10 02:27:24;;;;;;;4.00;3.08;;;16.40;90.20;;;;;;5052138;28;20353;-47
2022/08/10 02:29:52;;;;;;;3.58;2.65;;;16.40;90.20;;;;;;5061356;28;20039;-44
2022/08/10 02:32:21;;;;;;;4.85;2.92;;;16.40;90.10;;;;;;5065951;28;20020;-44
2022/08/10 02:34:49;;;;;;;5.63;2.83;;;16.30;90.20;;;;;;5063731;28;20021;-49
2022/08/10 02:37:20;;;;;;;4.05;2.97;;;16.30;90.10;;;;;;5048437;28;20029;-44
2022/08/10 02:39:49;;;;;;;5.05;2.75;;;16.30;90.10;;;;;;5070094;28;20055;-44
2022/08/10 02:42:24;;;;;;;4.28;2.22;;;16.20;90.00;;;;;;5069051;28;20032;-45
2022/08/10 02:45:09;;;;;;;4.25;2.65;;;16.20;90.00;;;;;;5048977;28;20048;-43
2022/08/10 02:47:48;;;;;;;4.15;2.75;;;16.10;90.00;;;;;;5058204;28;20082;-46
2022/08/10 02:50:25;;;;;;;5.70;2.70;;;16.10;90.00;;;;;;5070386;28;20489;-44
2022/08/10 02:53:04;;;;;;;4.93;3.13;;;16.00;89.90;;;;;;5049176;28;20052;-44
2022/08/10 02:55:40;;;;;;;4.13;2.80;;;16.00;89.90;;;;;;5064847;28;20039;-43
2022/08/10 02:58:12;;;;;;;4.78;2.78;;;15.90;89.80;;;;;;5050590;28;20108;-45
2022/08/10 03:00:44;;;;;;;6.80;3.47;;;15.90;89.70;;;;;;5067575;28;20047;-44
2022/08/10 03:03:16;;;;;;;4.20;2.33;;;15.90;89.80;;;;;;5063973;28;20478;-44
2022/08/10 03:05:46;;;;;;;4.78;2.75;;;15.90;89.80;;;;;;5053380;28;20020;-43
2022/08/10 03:08:14;;;;;;;;;;;15.80;89.90;;;;;;5064761;28;20033;-45
2022/08/10 03:10:42;;;;;;;3.88;2.55;;;15.80;89.70;;;;;;5055787;28;19908;-47
2022/08/10 03:13:11;;;;;;;4.50;2.63;;;15.70;89.70;;;;;;5065804;28;20462;-46
2022/08/10 03:15:39;;;;;;;3.95;2.70;;;15.70;89.70;;;;;;5051248;28;20485;-43
2022/08/10 03:18:05;;;;;;;3.58;2.72;;;15.60;89.70;;;;;;5056898;28;20028;-47
2022/08/10 03:20:37;;;;;;;6.45;2.83;;;15.60;89.70;;;;;;5066770;28;20333;-45
2022/08/10 03:23:09;;;;;;;4.22;2.30;;;15.60;89.70;;;;;;5052635;28;20363;-46
2022/08/10 03:25:36;;;;;;;5.45;3.00;;;15.50;89.70;;;;;;5070651;28;20794;-44
2022/08/10 03:28:02;;;;;;;4.97;3.00;;;15.50;89.60;;;;;;5050102;28;20048;-43
2022/08/10 03:30:33;;;;;;;6.15;3.10;;;15.50;89.70;;;;;;5064943;28;20055;-48
2022/08/10 03:33:02;;;;;;;5.05;2.88;;;15.40;89.70;;;;;;5055432;28;20327;-45
2022/08/10 03:35:28;;;;;;;4.45;3.05;;;15.40;89.70;;;;;;5058144;28;20021;-43
2022/08/10 03:37:54;;;;;;;4.18;3.42;;;15.40;89.70;;;;;;5055523;28;20031;-45
2022/08/10 03:40:20;;;;;;;7.15;3.88;;;15.40;89.70;;;;;;5064532;28;20063;-42
2022/08/10 03:42:48;;;;;;;4.10;3.15;;;15.40;89.80;;;;;;5053384;28;20700;-43
2022/08/10 03:45:18;;;;;;;4.45;3.42;;;15.40;89.80;;;;;;5087544;28;20035;-45
2022/08/10 03:47:47;;;;;;;4.82;3.75;;;15.30;89.80;;;;;;5071971;28;20055;-43
2022/08/10 03:50:14;;;;;;;3.88;2.90;;;15.20;89.70;;;;;;5077986;28;20495;-44
2022/08/10 03:52:40;;;;;;;7.18;3.70;;;15.30;89.80;;;;;;5092732;28;20449;-43
2022/08/10 03:55:06;;;;;;;4.25;3.30;;;15.30;89.70;;;;;;5068311;28;20028;-43
2022/08/10 03:57:32;;;;;;;6.10;3.65;;;15.20;89.60;;;;;;5071110;28;20046;-46
2022/08/10 04:00:00;;;;;;;7.20;3.67;;;15.20;89.80;;;;;;5074146;28;20451;-46
2022/08/10 04:02:28;;;;;;;5.45;3.65;;;15.20;89.90;;;;;;5056807;28;20036;-48
2022/08/10 04:04:54;;;;;;;5.63;4.28;;;15.10;89.90;;;;;;5081495;28;20036;-43
2022/08/10 04:07:20;;;;;;;5.70;4.13;;;15.10;89.70;;;;;;5079784;28;20488;-43
2022/08/10 04:09:45;;;;;;;5.40;3.90;;;15.10;89.80;;;;;;5087499;28;20039;-46
2022/08/10 04:12:14;;;;;;;4.40;3.70;;;15.00;89.90;;;;;;5082396;28;20082;-43
2022/08/10 04:14:39;;;;;;;5.50;4.07;;;15.10;89.90;;;;;;5060031;28;20059;-44
2022/08/10 04:17:05;;;;;;;7.30;4.85;;;15.00;89.90;;;;;;5080079;28;20438;-45
2022/08/10 04:19:46;;;;;;;6.75;5.22;;;15.10;90.00;;;;;;5073065;28;20437;-45
2022/08/10 04:22:22;;;;;;;6.63;4.45;;;15.10;90.00;;;;;;5091990;28;20092;-44
2022/08/10 04:24:53;;;;;;;7.70;4.15;;;15.10;90.00;;;;;;5075214;28;20492;-45
2022/08/10 04:27:20;;;;;;;6.28;5.00;;;15.10;89.90;;;;;;5079245;28;20028;-43
2022/08/10 04:29:47;;;;;;;7.15;4.20;;;15.10;89.90;;;;;;5091841;28;20059;-45
2022/08/10 04:32:18;;;;;;;5.70;4.07;;;15.10;89.90;;;;;;5073913;28;20086;-43
2022/08/10 04:34:44;;;;;;;5.72;4.10;;;15.10;90.00;;;;;;5072462;28;20111;-46
2022/08/10 04:37:14;;;;;;;7.05;3.72;;;15.10;90.00;;;;;;5066240;28;20427;-43
2022/08/10 04:39:40;;;;;;;5.45;3.58;;;15.20;89.90;;;;;;5071391;28;20032;-46
2022/08/10 04:42:08;;;;;;;5.70;3.78;;;15.20;90.00;;;;;;5082430;28;20113;-44
2022/08/10 04:44:36;;;;;;;5.63;3.30;;;15.20;90.00;;;;;;5056367;28;20064;-45
2022/08/10 04:47:02;;;;;;;4.55;3.35;;;15.20;90.00;;;;;;5069649;28;20029;-43
2022/08/10 04:49:28;;;;;;;6.85;3.33;;;15.30;89.90;;;;;;5053182;28;20033;-43
2022/08/10 04:51:54;;;;;;;5.82;3.53;;;15.30;90.00;;;;;;5051670;28;20455;-45
2022/08/10 04:54:19;;;;;;;4.28;2.60;;;15.30;90.10;;;;;;5065034;28;20035;-43
2022/08/10 04:56:45;;;;;;;6.90;3.78;;;15.40;90.20;;;;;;5068605;28;20032;-46
2022/08/10 04:59:11;;;;;;;6.30;4.00;;;15.40;90.30;;;;;;5066391;28;20036;-44
2022/08/10 05:01:38;;;;;;;4.38;3.28;;;15.50;90.30;;;;;;5091846;28;20028;-46
2022/08/10 05:04:06;;;;;;;5.95;3.53;;;15.60;90.40;;;;;;5090494;28;20118;-44
2022/08/10 05:06:34;;;;;;;4.72;3.65;;;15.60;90.50;;;;;;5071037;28;20115;-47
2022/08/10 05:09:00;;;;;;;6.53;3.35;;;15.70;90.70;;;;;;5052600;28;20029;-43
2022/08/10 05:11:26;;;;;;;6.65;4.95;;;15.80;90.70;;;;;;5068816;28;20036;-43
2022/08/10 05:13:51;;;;;;;4.65;3.35;;;15.90;90.70;;;;;;5061497;28;20029;-43
2022/08/10 05:16:17;;;;;;;3.92;2.75;;;15.90;90.80;;;;;;5059830;28;20029;-43
2022/08/10 05:18:43;;;;;;;4.20;3.60;;;16.00;90.80;;;;;;5059599;28;20066;-44
2022/08/10 05:21:08;;;;;;;4.75;3.78;;;16.10;90.80;;;;;;5053290;28;20029;-46
2022/08/10 05:23:34;;;;;;;5.40;3.92;;;16.20;90.90;;;;;;5051007;28;20075;-46
2022/08/10 05:26:00;;;;;;;5.15;3.38;;;16.30;90.90;;;;;;5067592;28;20028;-43
2022/08/10 05:28:25;;;;;;;4.85;3.97;;;16.40;91.00;;;;;;5068662;28;20450;-44
2022/08/10 05:30:51;;;;;;;6.30;3.75;;;16.40;91.00;;;;;;5058586;28;20032;-43
2022/08/10 05:33:19;;;;;;;9.23;4.25;;;16.50;90.90;;;;;;5069407;28;20024;-43
2022/08/10 05:35:45;;;;;;;8.15;4.55;;;16.50;90.90;;;;;;5064283;28;20021;-45
2022/08/10 05:38:13;;;;;;;6.03;3.60;;;16.60;90.90;;;;;;5064432;28;20039;-43
2022/08/10 05:40:40;;;;;;;12.57;4.10;;;16.60;90.90;;;;;;5070182;28;20070;-44
2022/08/10 05:43:08;;;;;;;5.45;3.42;;;16.70;90.80;;;;;;5067706;28;20105;-44
2022/08/10 05:45:34;;;;;;;5.32;3.50;;;16.80;90.80;;;;;;5057186;28;20059;-44
2022/08/10 05:48:00;;;;;;;6.03;3.22;;;16.90;90.60;;;;;;5049783;28;20032;-43
2022/08/10 05:50:29;;;;;;;5.63;3.70;;;16.90;90.60;;;;;;5061440;28;20039;-43
2022/08/10 05:52:55;;;;;;;6.35;3.45;;;17.00;90.50;;;;;;5069651;28;20016;-43
2022/08/10 05:55:22;;;;;;;7.13;4.07;;;17.00;90.10;;;;;;5068281;28;20032;-44
2022/08/10 05:57:50;;;;;;;8.13;3.40;;;17.20;89.90;;;;;;5054165;28;20037;-43
2022/08/10 06:00:20;;;;;;;4.70;2.78;;;17.30;89.60;;;;;;5071269;28;20463;-44
2022/08/10 06:02:54;;;;;;;7.47;3.40;;;17.30;89.50;;;;;;5067097;28;20539;-45
2022/08/10 06:05:26;;;;;;;5.47;3.00;;;17.40;89.30;;;;;;5050393;28;20050;-44
2022/08/10 06:08:18;;;;;;;9.63;3.53;;;17.40;89.00;;;;;;5079503;28;20099;-43
2022/08/10 06:10:48;;;;;;;5.30;2.88;;;17.50;88.60;;;;;;5060863;28;20028;-45
2022/08/10 06:16:07;;;;;;;4.10;2.90;;;17.50;88.20;;;;;;5065416;28;20094;-44
2022/08/10 06:18:36;;;;;;;6.53;3.22;;;17.60;88.10;;;;;;5065914;28;20211;-44
2022/08/10 06:21:08;;;;;;;7.70;3.10;;;17.70;88.00;;;;;;5066093;28;20025;-44
2022/08/10 06:23:35;;;;;;;5.38;3.05;;;17.80;87.80;;;;;;5066247;28;20032;-44
2022/08/10 06:26:01;;;;;;;3.88;2.42;;;17.80;87.10;;;;;;5063814;28;20032;-44
2022/08/10 06:28:32;;;;;;;3.85;2.45;;;17.90;87.10;;;;;;5065012;28;20037;-44
2022/08/10 06:31:00;;;;;;;3.03;2.42;;;17.90;87.00;;;;;;5053137;28;20518;-44
2022/08/10 06:33:30;;;;;;;5.47;2.33;;;17.90;86.70;;;;;;5056555;28;20036;-43
2022/08/10 06:35:58;;;;;;;4.18;3.03;;;18.00;86.20;;;;;;5061427;28;20024;-44
2022/08/10 06:38:25;;;;;;;5.05;2.60;;;18.10;86.30;;;;;;5067837;28;20067;-44
2022/08/10 06:40:55;;;;;;;3.30;2.60;;;18.20;86.10;;;;;;5064846;28;20025;-44
2022/08/10 06:43:23;;;;;;;5.22;2.40;;;18.30;86.10;;;;;;5058458;28;20535;-45
2022/08/10 06:46:01;;;;;;;7.22;2.45;;;18.30;86.30;;;;;;5086229;28;20036;-44
2022/08/10 06:48:36;;;;;;;6.28;2.92;;;18.40;85.60;;;;;;5051711;28;20053;-44
2022/08/10 06:51:05;;;;;;;5.90;2.47;;;18.40;85.20;;;;;;5071053;28;20117;-44
2022/08/10 06:53:43;;;;;;;4.30;2.60;;;18.40;85.40;;;;;;5071774;28;20353;-45
2022/08/10 06:56:18;;;;;;;3.72;2.30;;;18.50;85.20;;;;;;5072285;28;20043;-45
2022/08/10 06:58:50;;;;;;;3.22;2.00;;;18.60;84.80;;;;;;5069580;28;20350;-44
2022/08/10 07:01:21;;;;;;;4.38;2.20;;;18.60;83.50;;;;;;5059843;28;20127;-43
2022/08/10 07:04:00;;;;;;;6.47;2.65;;;18.70;83.50;;;;;;5087817;28;20032;-43
2022/08/10 07:06:28;;;;;;;4.85;2.25;;;18.70;83.50;;;;;;5069774;28;20039;-43
2022/08/10 07:08:55;;;;;;;5.85;2.70;;;18.80;83.00;;;;;;5085513;28;20408;-44
2022/08/10 07:11:22;;;;;;;8.60;3.40;;;18.90;83.80;;;;;;5065828;28;20217;-45
2022/08/10 07:13:51;;;;;;;3.42;2.60;;;18.90;83.60;;;;;;5089005;28;20028;-43
2022/08/10 07:16:18;;;;;;;4.77;2.80;;;18.90;83.00;;;;;;5062778;28;20028;-43
2022/08/10 07:18:46;;;;;;;3.45;2.22;;;18.90;82.60;;;;;;5070108;28;20263;-44
2022/08/10 07:21:16;;;;;;;12.98;3.00;;;19.00;82.70;;;;;;5068290;28;20400;-45
2022/08/10 07:23:44;;;;;;;;;;;19.00;82.10;;;;;;5077982;28;20032;-46
2022/08/10 07:26:12;;;;;;;6.38;3.47;;;19.10;82.10;;;;;;5088330;28;19908;-44
2022/08/10 07:28:38;;;;;;;4.70;2.90;;;19.20;82.10;;;;;;5063283;28;20441;-44
2022/08/10 07:31:05;;;;;;;4.50;2.85;;;19.30;81.60;;;;;;5072763;28;20081;-44
2022/08/10 07:33:33;;;;;;;4.63;2.92;;;19.40;81.90;;;;;;5089308;28;20326;-46
2022/08/10 07:36:01;;;;;;;6.57;3.22;;;19.60;80.10;;;;;;5087241;28;20024;-45
2022/08/10 07:38:30;;;;;;;4.97;3.10;;;19.90;79.70;;;;;;5089180;28;20028;-46
2022/08/10 07:40:59;;;;;;;4.43;2.77;;;20.10;78.50;;;;;;5082832;28;20453;-46
2022/08/10 07:43:34;;;;;;;3.85;3.38;;;20.50;78.50;;;;;;5067055;28;20497;-44
2022/08/10 07:46:03;;;;;;;3.83;2.88;;;20.80;77.30;;;;;;5057025;28;20031;-46
2022/08/10 07:48:35;;;;;;;3.70;2.40;;;21.00;75.50;;;;;;5064603;28;20086;-46
2022/08/10 07:51:05;;;;;;;3.97;2.45;;;21.30;74.10;;;;;;5054347;28;20338;-46
2022/08/10 07:53:41;;;;;;;3.80;2.10;;;21.40;75.60;;;;;;5057175;28;20028;-48
2022/08/10 07:56:08;;;;;;;5.57;2.35;;;21.90;75.30;;;;;;5068257;28;20050;-45
2022/08/10 07:58:54;;;;;;;3.53;1.90;;;22.30;72.80;;;;;;5052822;28;20067;-46
2022/08/10 08:01:26;;;;;;;5.85;2.30;;;22.40;69.40;;;;;;5050947;28;20027;-50
2022/08/10 08:03:53;;;;;;;4.32;1.95;;;22.40;70.00;;;;;;5052404;28;20083;-48
2022/08/10 08:06:19;;;;;;;3.95;2.20;;;22.40;70.20;;;;;;5052618;28;20402;-47
2022/08/10 08:08:46;;;;;;;5.90;1.95;;;22.60;68.70;;;;;;5065674;28;20021;-47
2022/08/10 08:11:13;;;;;;;4.70;1.98;;;22.70;69.10;;;;;;5060614;28;20020;-46
2022/08/10 08:13:39;;;;;;;3.03;1.75;;;23.00;69.60;;;;;;5050048;28;20165;-46
2022/08/10 08:16:06;;;;;;;6.22;2.70;;;23.30;67.40;;;;;;5074104;28;20472;-48
2022/08/10 08:18:37;;;;;;;3.90;2.05;;;23.50;66.70;;;;;;5050848;28;20056;-48
2022/08/10 08:21:05;;;;;;;9.57;3.15;;;23.60;66.60;;;;;;5055767;28;20048;-48
2022/08/10 08:23:33;;;;;;;4.33;2.03;;;23.60;65.70;;;;;;5067012;28;20029;-47
2022/08/10 08:25:59;;;;;;;3.88;2.08;;;23.60;67.40;;;;;;5065873;28;20024;-46
2022/08/10 08:28:28;;;;;;;4.38;1.98;;;23.60;66.70;;;;;;5059413;28;20021;-47
2022/08/10 08:30:58;;;;;;;12.13;2.45;;;23.90;66.00;;;;;;5076712;28;20029;-48
2022/08/10 08:33:27;;;;;;;;;;;23.90;64.70;;;;;;5052827;28;20052;-49
2022/08/10 08:35:55;;;;;;;5.00;1.95;;;23.90;64.10;;;;;;5069886;28;19920;-47
2022/08/10 08:38:25;;;;;;;4.20;2.00;;;24.00;64.40;;;;;;5068453;28;20033;-49
2022/08/10 08:41:27;;;;;;;2.90;1.90;;;24.10;64.90;;;;;;5070749;28;20021;-47
2022/08/10 08:44:13;;;;;;;3.58;2.05;;;23.90;63.00;;;;;;5066067;28;20484;-47
2022/08/10 08:47:16;;;;;;;8.00;2.30;;;24.20;62.90;;;;;;5088275;28;20492;-48
2022/08/10 08:49:47;;;;;;;5.50;2.17;;;24.10;63.20;;;;;;5084874;28;20028;-51
2022/08/10 08:52:27;;;;;;;12.73;3.03;;;24.10;64.20;;;;;;5091953;28;20379;-50
2022/08/10 08:55:21;;;;;;;6.68;2.15;;;24.20;64.60;;;;;;5088537;28;20024;-49
2022/08/10 08:58:00;;;;;;;5.20;1.80;;;24.40;61.30;;;;;;5089970;28;20039;-47
2022/08/10 09:00:50;;;;;;;5.93;2.22;;;24.50;62.80;;;;;;5083918;28;20094;-47
2022/08/10 09:03:34;;;;;;;2.90;2.08;;;24.00;63.80;;;;;;5073767;28;20082;-48
2022/08/10 09:06:03;;;;;;;6.90;2.95;;;24.10;64.80;;;;;;5080099;28;20020;-47
2022/08/10 09:09:08;;;;;;;3.43;2.00;;;24.30;66.80;;;;;;5087348;28;20020;-48
2022/08/10 09:12:18;;;;;;;4.35;1.95;;;24.40;62.10;;;;;;5003505;28;20028;-47
2022/08/10 09:15:10;;;;;;;8.57;2.35;;;24.40;64.70;;;;;;5071703;28;20032;-47
2022/08/10 09:17:54;;;;;;;5.53;1.95;;;24.30;62.90;;;;;;5074543;28;20114;-47
2022/08/10 09:20:47;;;;;;;3.63;2.05;;;24.60;65.00;;;;;;5076972;28;20078;-47
2022/08/10 09:23:43;;;;;;;4.60;2.45;;;24.50;65.00;;;;;;5082876;28;20111;-50
2022/08/10 09:26:40;;;;;;;8.35;2.03;;;24.40;64.00;;;;;;5088111;28;20358;-46
2022/08/10 09:29:11;;;;;;;4.85;1.77;;;24.10;64.10;;;;;;5087056;28;20032;-46
2022/08/10 09:31:52;;;;;;;3.53;1.77;;;24.10;65.10;;;;;;5082145;28;20024;-47
2022/08/10 09:34:49;;;;;;;5.85;2.08;;;24.00;64.80;;;;;;5062963;28;20052;-46
2022/08/10 09:37:44;;;;;;;3.47;1.92;;;23.90;65.00;;;;;;5077131;28;20469;-47
2022/08/10 09:40:16;;;;;;;4.25;1.98;;;24.00;66.10;;;;;;5075362;28;20044;-47
2022/08/10 09:43:02;;;;;;;4.38;2.30;;;24.30;65.90;;;;;;5084713;28;20043;-47
2022/08/10 09:45:49;;;;;;;4.38;2.40;;;24.40;65.80;;;;;;5062444;28;20032;-49
2022/08/10 09:48:33;;;;;;;4.78;2.03;;;24.20;64.30;;;;;;5077142;28;20045;-48
2022/08/10 09:51:08;;;;;;;7.63;2.45;;;24.00;67.90;;;;;;5079532;28;20028;-51
2022/08/10 09:54:11;;;;;;;2.10;1.13;;;23.90;66.60;;;;;;5080688;28;20021;-47
2022/08/10 09:57:14;;;;;;;5.00;2.10;;;24.30;66.10;;;;;;5070058;28;20024;-53
2022/08/10 09:59:49;;;;;;;4.07;1.42;;;24.40;64.00;;;;;;5054830;28;20024;-50
2022/08/10 10:02:28;;;;;;;13.73;2.45;;;24.50;64.60;;;;;;5053161;28;20082;-49
2022/08/10 10:05:09;;;;;;;8.43;2.17;;;24.50;65.70;;;;;;5070017;28;20032;-47
2022/08/10 10:07:41;;;;;;;5.10;1.92;;;24.50;65.60;;;;;;5074093;28;20024;-47
2022/08/10 10:10:09;;;;;;;7.57;1.77;;;24.60;65.10;;;;;;5073894;28;20026;-48
2022/08/10 10:12:55;;;;;;;12.52;1.83;;;24.90;64.00;;;;;;5088769;28;20016;-48
2022/08/10 10:15:33;;;;;;;5.03;2.40;;;25.30;63.20;;;;;;5107141;28;20027;-49
2022/08/10 10:18:03;;;;;;;3.38;2.10;;;25.10;60.90;;;;;;5071768;28;20106;-47
2022/08/10 10:20:51;;;;;;;6.07;2.58;;;25.00;63.90;;;;;;5088550;28;20036;-50
2022/08/10 10:23:31;;;;;;;5.15;1.88;;;25.30;62.20;;;;;;5084098;28;20468;-47
2022/08/10 10:26:12;;;;;;;5.65;1.85;;;25.40;62.50;;;;;;5086971;28;20068;-48
2022/08/10 10:28:59;;;;;;;2.90;1.55;;;25.40;63.10;;;;;;5082689;28;20043;-47
2022/08/10 10:32:02;;;;;;;3.92;1.70;;;25.60;61.50;;;;;;5061903;28;20325;-47
2022/08/10 10:35:02;;;;;;;4.07;1.70;;;25.70;62.50;;;;;;5069033;28;20071;-48
2022/08/10 10:37:30;;;;;;;7.25;2.20;;;25.70;63.60;;;;;;5062703;28;20032;-47
2022/08/10 10:39:57;;;;;;;7.43;1.98;;;25.60;62.00;;;;;;5072684;28;20031;-47
2022/08/10 10:42:29;;;;;;;4.18;2.05;;;25.60;60.60;;;;;;5071329;28;20089;-47
2022/08/10 10:45:04;;;;;;;4.38;1.85;;;25.50;60.70;;;;;;5070119;28;20118;-47
2022/08/10 10:47:52;;;;;;;6.68;2.30;;;25.40;60.50;;;;;;5089112;28;20031;-49
2022/08/10 10:50:43;;;;;;;2.60;1.70;;;25.50;64.20;;;;;;5076413;28;20033;-47
2022/08/10 10:53:11;;;;;;;2.38;1.50;;;25.80;62.40;;;;;;5078034;28;20091;-47
2022/08/10 10:55:45;;;;;;;3.17;1.65;;;25.90;60.70;;;;;;5066710;28;20020;-48
2022/08/10 10:58:29;;;;;;;3.30;1.95;;;25.90;60.30;;;;;;5089639;28;20085;-47
2022/08/10 11:01:09;;;;;;;2.95;1.42;;;25.70;60.00;;;;;;5081927;28;20388;-47
2022/08/10 11:03:46;;;;;;;2.72;1.48;;;25.60;62.80;;;;;;5069578;28;20048;-49
2022/08/10 11:06:33;;;;;;;3.85;2.30;;;25.90;61.90;;;;;;5070438;28;20060;-47
2022/08/10 11:09:12;;;;;;;5.60;2.20;;;25.80;58.40;;;;;;5078192;28;20028;-49
2022/08/10 11:11:42;;;;;;;3.42;1.90;;;25.60;60.10;;;;;;5060858;28;20032;-47
2022/08/10 11:14:43;;;;;;;5.35;2.13;;;25.50;59.70;;;;;;5052370;28;20081;-48
2022/08/10 11:17:27;;;;;;;5.00;2.65;;;25.30;61.60;;;;;;5058254;28;20462;-48
2022/08/10 11:20:05;;;;;;;5.40;1.60;;;25.20;62.00;;;;;;5089273;28;20032;-47
2022/08/10 11:23:02;;;;;;;8.43;2.40;;;25.20;63.10;;;;;;5077648;28;20036;-51
2022/08/10 11:25:31;;;;;;;5.50;2.15;;;25.40;61.00;;;;;;5071530;28;20077;-47
2022/08/10 11:28:09;;;;;;;4.28;1.45;;;25.40;61.00;;;;;;5069365;28;20021;-49
2022/08/10 11:30:56;;;;;;;7.35;1.90;;;25.40;63.00;;;;;;5065284;28;20036;-47
2022/08/10 11:33:44;;;;;;;2.80;1.40;;;25.50;62.70;;;;;;5068823;28;20028;-50
2022/08/10 11:36:45;;;;;;;2.58;1.30;;;25.10;62.30;;;;;;5064404;28;20032;-49
2022/08/10 11:39:14;;;;;;;3.08;1.38;;;25.30;64.40;;;;;;5070479;28;20036;-47
2022/08/10 11:41:43;;;;;;;5.63;1.93;;;25.10;61.60;;;;;;5088928;28;20039;-48
2022/08/10 11:44:14;;;;;;;5.87;1.83;;;25.20;62.80;;;;;;5064142;28;20083;-46
2022/08/10 11:47:05;;;;;;;8.90;2.20;;;25.20;62.30;;;;;;5054074;28;20025;-47
2022/08/10 11:50:04;;;;;;;4.45;2.10;;;25.10;62.10;;;;;;5048668;28;20057;-51
2022/08/10 11:52:57;;;;;;;4.75;2.13;;;25.20;61.40;;;;;;5041193;28;20044;-48
2022/08/10 11:55:27;;;;;;;7.35;2.03;;;24.90;62.30;;;;;;5066847;28;20373;-49
2022/08/10 11:57:57;;;;;;;4.78;1.65;;;25.10;63.00;;;;;;5064295;28;20028;-49
2022/08/10 12:00:29;;;;;;;3.40;1.75;;;25.10;61.80;;;;;;5050128;28;20036;-47
2022/08/10 12:02:58;;;;;;;5.00;2.30;;;25.00;62.30;;;;;;5065946;28;20047;-48
2022/08/10 12:05:34;;;;;;;6.75;1.73;;;24.90;63.70;;;;;;5061158;28;20029;-46
2022/08/10 12:08:01;;;;;;;4.80;1.48;;;24.90;63.30;;;;;;5048987;28;20096;-47
2022/08/10 12:10:29;;;;;;;5.80;1.90;;;24.90;62.60;;;;;;5056930;28;20341;-47
2022/08/10 12:13:13;;;;;;;3.72;1.73;;;24.70;63.80;;;;;;5061420;28;20025;-47
2022/08/10 12:15:51;;;;;;;3.00;1.33;;;24.70;64.70;;;;;;5056458;28;20017;-49
2022/08/10 12:18:25;;;;;;;6.25;1.88;;;24.80;66.30;;;;;;5066731;28;20059;-47
2022/08/10 12:20:57;;;;;;;4.90;2.15;;;24.80;66.20;;;;;;5059442;28;20040;-49
2022/08/10 12:23:34;;;;;;;2.83;1.60;;;24.90;64.20;;;;;;5074807;28;20035;-47
2022/08/10 12:26:08;;;;;;;4.63;1.50;;;24.90;65.40;;;;;;5063561;28;20071;-50
2022/08/10 12:28:38;;;;;;;7.93;1.60;;;25.00;64.20;;;;;;5068988;28;20352;-47
2022/08/10 12:31:09;;;;;;;4.00;1.52;;;25.00;64.40;;;;;;5068676;28;20494;-47
2022/08/10 12:33:45;;;;;;;5.22;1.52;;;25.00;65.00;;;;;;5069755;28;20436;-51
2022/08/10 12:36:14;;;;;;;3.67;1.90;;;24.70;63.30;;;;;;5059207;28;20101;-47
2022/08/10 12:38:59;;;;;;;4.15;1.52;;;24.60;63.80;;;;;;5067496;28;20036;-47
2022/08/10 12:41:36;;;;;;;2.95;1.35;;;24.50;65.60;;;;;;5066360;28;20034;-47
2022/08/10 12:44:11;;;;;;;3.03;1.40;;;24.60;64.90;;;;;;5080610;28;20032;-47
2022/08/10 12:46:52;;;;;;;5.30;2.25;;;24.50;66.30;;;;;;5087280;28;20689;-47
2022/08/10 12:49:25;;;;;;;2.85;1.25;;;24.70;63.40;;;;;;5092164;28;20489;-47
2022/08/10 12:52:13;;;;;;;6.60;2.03;;;24.80;64.90;;;;;;5089142;28;20458;-47
2022/08/10 12:54:40;;;;;;;11.95;2.20;;;24.80;63.70;;;;;;5078354;28;20035;-47
2022/08/10 12:57:13;;;;;;;6.03;1.70;;;24.80;63.60;;;;;;5077015;28;20127;-47
2022/08/10 12:59:49;;;;;;;6.20;2.00;;;24.80;64.60;;;;;;5076709;28;20028;-52
2022/08/10 13:02:23;;;;;;;15.73;3.65;;;24.70;64.30;;;;;;5086937;28;20111;-51
2022/08/10 13:04:51;;;;;;;8.32;2.35;;;24.70;64.60;;;;;;5092833;28;20020;-51
2022/08/10 13:07:34;;;;;;;6.75;1.50;;;24.60;62.90;;;;;;5095764;28;20039;-50
2022/08/10 13:10:08;;;;;;;5.30;1.88;;;24.50;64.80;;;;;;5090912;28;20026;-49
2022/08/10 13:12:38;;;;;;;4.47;1.75;;;24.40;62.10;;;;;;5082470;28;20374;-52
2022/08/10 13:15:05;;;;;;;;;;;24.40;62.80;;;;;;5071287;28;20027;-48
2022/08/10 13:17:37;;;;;;;7.97;1.67;;;24.40;64.10;;;;;;5087258;28;20456;-50
2022/08/10 13:20:14;;;;;;;3.10;1.73;;;24.40;63.20;;;;;;5089276;28;20024;-48
2022/08/10 13:22:41;;;;;;;3.92;1.55;;;24.30;64.00;;;;;;5084290;28;20055;-51
2022/08/10 13:25:10;;;;;;;11.40;2.58;;;24.30;64.30;;;;;;5079059;28;20434;-50